sensor_id;sensor_type;location;lat;lon;timestamp;temperature;humidity
17172;DHT22;8701;50.150;8.756;2023-07-31T00:03:54;19.20;99.90
17172;DHT22;8701;50.150;8.756;2023-07-31T00:07:56;18.90;99.90
17172;DHT22;8701;50.150;8.756;2023-07-31T00:11:58;19.20;99.90
17172;DHT22;8701;50.150;8.756;2023-07-31T00:16:02;19.00;99.90
17172;DHT22;8701;50.150;8.756;2023-07-31T00:20:07;18.90;99.90
17172;DHT22;8701;50.150;8.756;2023-07-31T00:24:09;18.90;99.90
17172;DHT22;8701;50.150;8.756;2023-07-31T00:28:11;18.90;99.90
17172;DHT22;8701;50.150;8.756;2023-07-31T00:32:14;18.90;99.90
17172;DHT22;8701;50.150;8.756;2023-07-31T00:36:17;18.90;99.90
17172;DHT22;8701;50.150;8.756;2023-07-31T00:40:20;18.90;99.90
17172;DHT22;8701;50.150;8.756;2023-07-31T00:44:22;18.80;99.90
17172;DHT22;8701;50.150;8.756;2023-07-31T00:48:24;18.80;99.90
17172;DHT22;8701;50.150;8.756;2023-07-31T00:52:28;18.70;99.90
17172;DHT22;8701;50.150;8.756;2023-07-31T00:56:31;18.70;99.90
17172;DHT22;8701;50.150;8.756;2023-07-31T01:00:33;18.70;99.90
17172;DHT22;8701;50.150;8.756;2023-07-31T01:04:35;18.60;99.90
17172;DHT22;8701;50.150;8.756;2023-07-31T01:08:42;18.60;99.90
17172;DHT22;8701;50.150;8.756;2023-07-31T01:12:48;18.60;99.90
17172;DHT22;8701;50.150;8.756;2023-07-31T01:16:50;18.50;99.90
17172;DHT22;8701;50.150;8.756;2023-07-31T01:20:57;18.50;99.90
17172;DHT22;8701;50.150;8.756;2023-07-31T01:25:15;18.50;99.90
17172;DHT22;8701;50.150;8.756;2023-07-31T01:29:25;18.50;99.90
17172;DHT22;8701;50.150;8.756;2023-07-31T01:33:31;18.60;99.90
17172;DHT22;8701;50.150;8.756;2023-07-31T01:37:34;18.60;99.90
17172;DHT22;8701;50.150;8.756;2023-07-31T01:41:36;18.60;99.90
17172;DHT22;8701;50.150;8.756;2023-07-31T01:45:40;18.60;99.90
17172;DHT22;8701;50.150;8.756;2023-07-31T01:49:43;18.60;99.90
17172;DHT22;8701;50.150;8.756;2023-07-31T01:53:45;18.60;99.90
17172;DHT22;8701;50.150;8.756;2023-07-31T01:57:47;18.60;99.90
17172;DHT22;8701;50.150;8.756;2023-07-31T02:01:51;18.60;99.90
17172;DHT22;8701;50.150;8.756;2023-07-31T02:05:54;18.60;99.90
17172;DHT22;8701;50.150;8.756;2023-07-31T02:09:59;18.70;99.90
17172;DHT22;8701;50.150;8.756;2023-07-31T02:14:02;18.70;99.90
17172;DHT22;8701;50.150;8.756;2023-07-31T02:18:05;18.70;99.90
17172;DHT22;8701;50.150;8.756;2023-07-31T02:22:08;18.70;99.90
17172;DHT22;8701;50.150;8.756;2023-07-31T02:26:10;18.80;99.90
17172;DHT22;8701;50.150;8.756;2023-07-31T02:30:12;18.70;99.90
17172;DHT22;8701;50.150;8.756;2023-07-31T02:34:15;18.80;99.90
17172;DHT22;8701;50.150;8.756;2023-07-31T02:38:18;18.80;99.90
17172;DHT22;8701;50.150;8.756;2023-07-31T02:42:20;18.80;99.90
17172;DHT22;8701;50.150;8.756;2023-07-31T02:46:22;18.80;99.90
17172;DHT22;8701;50.150;8.756;2023-07-31T02:50:27;18.90;99.90
17172;DHT22;8701;50.150;8.756;2023-07-31T02:54:29;18.90;99.90
17172;DHT22;8701;50.150;8.756;2023-07-31T02:58:31;18.90;99.90
17172;DHT22;8701;50.150;8.756;2023-07-31T03:02:34;18.90;99.90
17172;DHT22;8701;50.150;8.756;2023-07-31T03:06:38;18.90;99.90
17172;DHT22;8701;50.150;8.756;2023-07-31T03:10:40;18.90;99.90
17172;DHT22;8701;50.150;8.756;2023-07-31T03:14:43;18.80;99.90
17172;DHT22;8701;50.150;8.756;2023-07-31T03:18:45;18.90;99.90
17172;DHT22;8701;50.150;8.756;2023-07-31T03:22:49;18.80;99.90
17172;DHT22;8701;50.150;8.756;2023-07-31T03:26:51;18.90;99.90
17172;DHT22;8701;50.150;8.756;2023-07-31T03:30:53;18.80;99.90
17172;DHT22;8701;50.150;8.756;2023-07-31T03:34:55;18.70;99.90
17172;DHT22;8701;50.150;8.756;2023-07-31T03:38:59;18.70;99.90
17172;DHT22;8701;50.150;8.756;2023-07-31T03:43:01;18.70;99.90
17172;DHT22;8701;50.150;8.756;2023-07-31T03:47:04;18.70;99.90
17172;DHT22;8701;50.150;8.756;2023-07-31T03:51:06;18.60;99.90
17172;DHT22;8701;50.150;8.756;2023-07-31T03:55:10;18.60;99.90
17172;DHT22;8701;50.150;8.756;2023-07-31T03:59:12;18.60;99.90
17172;DHT22;8701;50.150;8.756;2023-07-31T04:03:14;18.60;99.90
17172;DHT22;8701;50.150;8.756;2023-07-31T04:07:16;18.60;99.90
17172;DHT22;8701;50.150;8.756;2023-07-31T04:11:20;18.50;99.90
17172;DHT22;8701;50.150;8.756;2023-07-31T04:15:22;18.60;99.90
17172;DHT22;8701;50.150;8.756;2023-07-31T04:19:24;18.60;99.90
17172;DHT22;8701;50.150;8.756;2023-07-31T04:23:26;18.60;99.90
17172;DHT22;8701;50.150;8.756;2023-07-31T04:27:30;18.60;99.90
17172;DHT22;8701;50.150;8.756;2023-07-31T04:31:33;18.60;99.90
17172;DHT22;8701;50.150;8.756;2023-07-31T04:35:35;18.50;99.90
17172;DHT22;8701;50.150;8.756;2023-07-31T04:39:38;18.60;99.90
17172;DHT22;8701;50.150;8.756;2023-07-31T04:43:42;18.60;99.90
17172;DHT22;8701;50.150;8.756;2023-07-31T04:47:44;18.60;99.90
17172;DHT22;8701;50.150;8.756;2023-07-31T04:51:46;18.60;99.90
17172;DHT22;8701;50.150;8.756;2023-07-31T04:55:48;18.50;99.90
17172;DHT22;8701;50.150;8.756;2023-07-31T04:59:52;18.60;99.90
17172;DHT22;8701;50.150;8.756;2023-07-31T05:03:54;18.60;99.90
17172;DHT22;8701;50.150;8.756;2023-07-31T05:07:56;18.50;99.90
17172;DHT22;8701;50.150;8.756;2023-07-31T05:11:59;18.60;99.90
17172;DHT22;8701;50.150;8.756;2023-07-31T05:16:02;18.60;99.90
17172;DHT22;8701;50.150;8.756;2023-07-31T05:20:06;18.50;99.90
17172;DHT22;8701;50.150;8.756;2023-07-31T05:24:08;18.60;99.90
17172;DHT22;8701;50.150;8.756;2023-07-31T05:28:11;18.60;99.90
17172;DHT22;8701;50.150;8.756;2023-07-31T05:32:15;18.60;99.90
17172;DHT22;8701;50.150;8.756;2023-07-31T05:36:17;18.60;99.90
17172;DHT22;8701;50.150;8.756;2023-07-31T05:40:19;18.60;99.90
17172;DHT22;8701;50.150;8.756;2023-07-31T05:44:22;18.60;99.90
17172;DHT22;8701;50.150;8.756;2023-07-31T05:48:25;18.50;99.90
17172;DHT22;8701;50.150;8.756;2023-07-31T05:52:27;18.40;99.90
17172;DHT22;8701;50.150;8.756;2023-07-31T05:56:30;18.40;99.90
17172;DHT22;8701;50.150;8.756;2023-07-31T06:00:34;18.40;99.90
17172;DHT22;8701;50.150;8.756;2023-07-31T06:04:38;18.40;99.90
17172;DHT22;8701;50.150;8.756;2023-07-31T06:08:40;18.50;99.90
17172;DHT22;8701;50.150;8.756;2023-07-31T06:12:42;18.50;99.90
17172;DHT22;8701;50.150;8.756;2023-07-31T06:16:44;18.50;99.90
17172;DHT22;8701;50.150;8.756;2023-07-31T06:20:48;18.60;99.90
17172;DHT22;8701;50.150;8.756;2023-07-31T06:24:54;18.60;99.90
17172;DHT22;8701;50.150;8.756;2023-07-31T06:28:56;18.60;99.90
17172;DHT22;8701;50.150;8.756;2023-07-31T06:32:58;18.70;99.90
17172;DHT22;8701;50.150;8.756;2023-07-31T06:37:02;18.70;99.90
17172;DHT22;8701;50.150;8.756;2023-07-31T06:41:04;18.80;99.90
17172;DHT22;8701;50.150;8.756;2023-07-31T06:45:07;18.90;99.90
17172;DHT22;8701;50.150;8.756;2023-07-31T06:49:10;18.90;99.90
17172;DHT22;8701;50.150;8.756;2023-07-31T06:53:13;18.90;99.90
17172;DHT22;8701;50.150;8.756;2023-07-31T06:57:15;18.80;99.90
17172;DHT22;8701;50.150;8.756;2023-07-31T07:01:18;18.90;99.90
17172;DHT22;8701;50.150;8.756;2023-07-31T07:05:20;18.90;99.90
17172;DHT22;8701;50.150;8.756;2023-07-31T07:09:24;19.00;99.90
17172;DHT22;8701;50.150;8.756;2023-07-31T07:13:26;19.10;99.90
17172;DHT22;8701;50.150;8.756;2023-07-31T07:17:29;19.30;99.90
17172;DHT22;8701;50.150;8.756;2023-07-31T07:21:32;19.10;99.90
17172;DHT22;8701;50.150;8.756;2023-07-31T07:25:37;19.10;99.90
17172;DHT22;8701;50.150;8.756;2023-07-31T07:29:40;19.10;99.90
17172;DHT22;8701;50.150;8.756;2023-07-31T07:33:42;19.20;99.90
17172;DHT22;8701;50.150;8.756;2023-07-31T07:37:44;19.30;99.90
17172;DHT22;8701;50.150;8.756;2023-07-31T07:41:48;19.30;99.90
17172;DHT22;8701;50.150;8.756;2023-07-31T07:45:50;19.70;99.90
17172;DHT22;8701;50.150;8.756;2023-07-31T07:49:52;19.80;99.90
17172;DHT22;8701;50.150;8.756;2023-07-31T07:53:55;19.90;99.90
17172;DHT22;8701;50.150;8.756;2023-07-31T07:57:58;19.90;99.90
17172;DHT22;8701;50.150;8.756;2023-07-31T08:02:00;20.10;99.90
17172;DHT22;8701;50.150;8.756;2023-07-31T08:06:03;20.40;99.90
17172;DHT22;8701;50.150;8.756;2023-07-31T08:10:06;20.30;99.90
17172;DHT22;8701;50.150;8.756;2023-07-31T08:14:09;20.30;99.90
17172;DHT22;8701;50.150;8.756;2023-07-31T08:18:12;20.20;99.90
17172;DHT22;8701;50.150;8.756;2023-07-31T08:22:14;20.20;99.90
17172;DHT22;8701;50.150;8.756;2023-07-31T08:26:16;20.20;99.90
17172;DHT22;8701;50.150;8.756;2023-07-31T08:30:20;20.10;99.90
17172;DHT22;8701;50.150;8.756;2023-07-31T08:34:23;20.10;99.90
17172;DHT22;8701;50.150;8.756;2023-07-31T08:38:25;20.20;99.90
17172;DHT22;8701;50.150;8.756;2023-07-31T08:42:28;20.30;99.90
17172;DHT22;8701;50.150;8.756;2023-07-31T08:46:32;20.40;99.90
17172;DHT22;8701;50.150;8.756;2023-07-31T08:50:35;20.40;99.90
17172;DHT22;8701;50.150;8.756;2023-07-31T08:54:38;20.40;99.90
17172;DHT22;8701;50.150;8.756;2023-07-31T08:58:41;20.50;99.90
17172;DHT22;8701;50.150;8.756;2023-07-31T09:02:46;20.80;99.90
17172;DHT22;8701;50.150;8.756;2023-07-31T09:06:51;20.90;99.90
17172;DHT22;8701;50.150;8.756;2023-07-31T09:10:59;20.80;99.90
17172;DHT22;8701;50.150;8.756;2023-07-31T09:15:03;20.90;99.90
17172;DHT22;8701;50.150;8.756;2023-07-31T09:19:06;20.80;99.90
17172;DHT22;8701;50.150;8.756;2023-07-31T09:23:10;20.80;99.90
17172;DHT22;8701;50.150;8.756;2023-07-31T09:27:12;20.80;99.90
17172;DHT22;8701;50.150;8.756;2023-07-31T09:31:15;20.80;99.90
17172;DHT22;8701;50.150;8.756;2023-07-31T09:35:27;20.90;99.90
17172;DHT22;8701;50.150;8.756;2023-07-31T09:39:30;20.90;99.90
17172;DHT22;8701;50.150;8.756;2023-07-31T09:43:32;21.00;99.90
17172;DHT22;8701;50.150;8.756;2023-07-31T09:47:35;21.20;99.90
17172;DHT22;8701;50.150;8.756;2023-07-31T09:51:39;21.10;99.90
17172;DHT22;8701;50.150;8.756;2023-07-31T09:55:42;20.90;99.90
17172;DHT22;8701;50.150;8.756;2023-07-31T09:59:46;20.80;99.90
17172;DHT22;8701;50.150;8.756;2023-07-31T10:03:49;20.70;99.90
17172;DHT22;8701;50.150;8.756;2023-07-31T10:07:54;20.90;99.90
17172;DHT22;8701;50.150;8.756;2023-07-31T10:12:00;21.00;99.90
17172;DHT22;8701;50.150;8.756;2023-07-31T10:16:05;21.30;99.90
17172;DHT22;8701;50.150;8.756;2023-07-31T10:20:09;21.30;99.90
17172;DHT22;8701;50.150;8.756;2023-07-31T10:24:13;21.30;99.90
17172;DHT22;8701;50.150;8.756;2023-07-31T10:28:17;21.50;99.90
17172;DHT22;8701;50.150;8.756;2023-07-31T10:32:20;21.60;99.90
17172;DHT22;8701;50.150;8.756;2023-07-31T10:36:22;21.50;99.90
17172;DHT22;8701;50.150;8.756;2023-07-31T10:40:27;21.60;99.90
17172;DHT22;8701;50.150;8.756;2023-07-31T10:44:29;21.70;99.90
17172;DHT22;8701;50.150;8.756;2023-07-31T10:48:33;21.70;99.90
17172;DHT22;8701;50.150;8.756;2023-07-31T10:52:37;21.70;99.90
17172;DHT22;8701;50.150;8.756;2023-07-31T10:56:44;21.60;99.90
17172;DHT22;8701;50.150;8.756;2023-07-31T11:00:46;21.60;99.90
17172;DHT22;8701;50.150;8.756;2023-07-31T11:05:05;21.50;99.90
17172;DHT22;8701;50.150;8.756;2023-07-31T11:09:13;21.50;99.90
17172;DHT22;8701;50.150;8.756;2023-07-31T11:13:17;21.60;99.90
17172;DHT22;8701;50.150;8.756;2023-07-31T11:17:19;21.60;99.90
17172;DHT22;8701;50.150;8.756;2023-07-31T11:21:23;21.90;99.90
17172;DHT22;8701;50.150;8.756;2023-07-31T11:25:25;21.90;99.90
17172;DHT22;8701;50.150;8.756;2023-07-31T11:29:29;21.80;99.90
17172;DHT22;8701;50.150;8.756;2023-07-31T11:33:31;21.90;99.90
17172;DHT22;8701;50.150;8.756;2023-07-31T11:37:39;22.30;99.90
17172;DHT22;8701;50.150;8.756;2023-07-31T11:41:42;22.40;99.90
17172;DHT22;8701;50.150;8.756;2023-07-31T11:45:47;22.70;99.90
17172;DHT22;8701;50.150;8.756;2023-07-31T11:49:49;22.70;99.90
17172;DHT22;8701;50.150;8.756;2023-07-31T11:53:53;22.40;99.90
17172;DHT22;8701;50.150;8.756;2023-07-31T11:57:58;22.20;99.90
17172;DHT22;8701;50.150;8.756;2023-07-31T12:02:03;22.00;99.90
17172;DHT22;8701;50.150;8.756;2023-07-31T12:06:05;22.10;99.90
17172;DHT22;8701;50.150;8.756;2023-07-31T12:10:08;22.10;99.90
17172;DHT22;8701;50.150;8.756;2023-07-31T12:14:19;22.10;99.90
17172;DHT22;8701;50.150;8.756;2023-07-31T12:18:24;22.10;99.90
17172;DHT22;8701;50.150;8.756;2023-07-31T12:22:27;22.10;99.90
17172;DHT22;8701;50.150;8.756;2023-07-31T12:26:34;22.00;99.90
17172;DHT22;8701;50.150;8.756;2023-07-31T12:30:37;22.10;99.90
17172;DHT22;8701;50.150;8.756;2023-07-31T12:34:43;21.90;99.90
17172;DHT22;8701;50.150;8.756;2023-07-31T12:38:45;22.00;99.90
17172;DHT22;8701;50.150;8.756;2023-07-31T12:42:47;21.90;99.90
17172;DHT22;8701;50.150;8.756;2023-07-31T12:46:50;21.80;99.90
17172;DHT22;8701;50.150;8.756;2023-07-31T12:50:53;21.80;99.90
17172;DHT22;8701;50.150;8.756;2023-07-31T12:54:56;22.00;99.90
17172;DHT22;8701;50.150;8.756;2023-07-31T12:58:58;21.80;99.90
17172;DHT22;8701;50.150;8.756;2023-07-31T13:03:01;21.80;99.90
17172;DHT22;8701;50.150;8.756;2023-07-31T13:07:05;22.00;99.90
17172;DHT22;8701;50.150;8.756;2023-07-31T13:11:07;22.30;99.90
17172;DHT22;8701;50.150;8.756;2023-07-31T13:15:10;22.60;99.90
17172;DHT22;8701;50.150;8.756;2023-07-31T13:19:12;22.80;99.90
17172;DHT22;8701;50.150;8.756;2023-07-31T13:23:15;22.80;99.90
17172;DHT22;8701;50.150;8.756;2023-07-31T13:27:18;22.80;99.90
17172;DHT22;8701;50.150;8.756;2023-07-31T13:31:22;22.80;99.90
17172;DHT22;8701;50.150;8.756;2023-07-31T13:35:24;22.50;99.90
17172;DHT22;8701;50.150;8.756;2023-07-31T13:39:28;22.40;99.90
17172;DHT22;8701;50.150;8.756;2023-07-31T13:43:31;22.30;99.90
17172;DHT22;8701;50.150;8.756;2023-07-31T13:47:33;22.50;99.90
17172;DHT22;8701;50.150;8.756;2023-07-31T13:51:36;22.60;99.90
17172;DHT22;8701;50.150;8.756;2023-07-31T13:55:41;22.60;99.90
17172;DHT22;8701;50.150;8.756;2023-07-31T13:59:46;22.60;99.90
17172;DHT22;8701;50.150;8.756;2023-07-31T14:03:48;22.60;99.90
17172;DHT22;8701;50.150;8.756;2023-07-31T14:07:50;22.60;99.90
17172;DHT22;8701;50.150;8.756;2023-07-31T14:11:54;22.60;99.90
17172;DHT22;8701;50.150;8.756;2023-07-31T14:15:56;22.50;99.90
17172;DHT22;8701;50.150;8.756;2023-07-31T14:19:59;22.40;99.90
17172;DHT22;8701;50.150;8.756;2023-07-31T14:24:01;22.30;99.90
17172;DHT22;8701;50.150;8.756;2023-07-31T14:28:05;22.20;99.90
17172;DHT22;8701;50.150;8.756;2023-07-31T14:32:07;22.10;99.90
17172;DHT22;8701;50.150;8.756;2023-07-31T14:36:10;22.10;99.90
17172;DHT22;8701;50.150;8.756;2023-07-31T14:40:13;22.00;99.90
17172;DHT22;8701;50.150;8.756;2023-07-31T14:44:17;22.00;99.90
17172;DHT22;8701;50.150;8.756;2023-07-31T14:48:19;22.00;99.90
17172;DHT22;8701;50.150;8.756;2023-07-31T14:52:21;22.00;99.90
17172;DHT22;8701;50.150;8.756;2023-07-31T14:56:23;22.10;99.90
17172;DHT22;8701;50.150;8.756;2023-07-31T15:00:29;22.20;99.90
17172;DHT22;8701;50.150;8.756;2023-07-31T15:04:31;22.30;99.90
17172;DHT22;8701;50.150;8.756;2023-07-31T15:08:33;22.30;99.90
17172;DHT22;8701;50.150;8.756;2023-07-31T15:12:37;22.20;99.90
17172;DHT22;8701;50.150;8.756;2023-07-31T15:16:41;22.10;99.90
17172;DHT22;8701;50.150;8.756;2023-07-31T15:20:43;22.00;99.90
17172;DHT22;8701;50.150;8.756;2023-07-31T15:24:45;22.00;99.90
17172;DHT22;8701;50.150;8.756;2023-07-31T15:28:55;22.00;99.90
17172;DHT22;8701;50.150;8.756;2023-07-31T15:33:00;21.90;99.90
17172;DHT22;8701;50.150;8.756;2023-07-31T15:37:03;21.80;99.90
17172;DHT22;8701;50.150;8.756;2023-07-31T15:41:05;21.70;99.90
17172;DHT22;8701;50.150;8.756;2023-07-31T15:45:09;21.60;99.90
17172;DHT22;8701;50.150;8.756;2023-07-31T15:49:13;21.60;99.90
17172;DHT22;8701;50.150;8.756;2023-07-31T15:53:15;21.70;99.90
17172;DHT22;8701;50.150;8.756;2023-07-31T15:57:18;21.60;99.90
17172;DHT22;8701;50.150;8.756;2023-07-31T16:01:20;21.60;99.90
17172;DHT22;8701;50.150;8.756;2023-07-31T16:05:24;21.70;99.90
17172;DHT22;8701;50.150;8.756;2023-07-31T16:09:26;21.60;99.90
17172;DHT22;8701;50.150;8.756;2023-07-31T16:13:28;21.70;99.90
17172;DHT22;8701;50.150;8.756;2023-07-31T16:17:31;21.50;99.90
17172;DHT22;8701;50.150;8.756;2023-07-31T16:21:35;21.30;99.90
17172;DHT22;8701;50.150;8.756;2023-07-31T16:25:37;21.20;99.90
17172;DHT22;8701;50.150;8.756;2023-07-31T16:29:39;21.20;99.90
17172;DHT22;8701;50.150;8.756;2023-07-31T16:33:42;21.20;99.90
17172;DHT22;8701;50.150;8.756;2023-07-31T16:37:45;21.30;99.90
17172;DHT22;8701;50.150;8.756;2023-07-31T16:41:48;21.30;99.90
17172;DHT22;8701;50.150;8.756;2023-07-31T16:45:50;21.30;99.90
17172;DHT22;8701;50.150;8.756;2023-07-31T16:49:53;21.20;99.90
17172;DHT22;8701;50.150;8.756;2023-07-31T16:53:56;21.30;99.90
17172;DHT22;8701;50.150;8.756;2023-07-31T16:57:59;21.30;99.90
17172;DHT22;8701;50.150;8.756;2023-07-31T17:02:02;21.30;99.90
17172;DHT22;8701;50.150;8.756;2023-07-31T17:06:04;21.20;99.90
17172;DHT22;8701;50.150;8.756;2023-07-31T17:10:08;21.20;99.90
17172;DHT22;8701;50.150;8.756;2023-07-31T17:14:11;21.20;99.90
17172;DHT22;8701;50.150;8.756;2023-07-31T17:18:13;21.20;99.90
17172;DHT22;8701;50.150;8.756;2023-07-31T17:22:15;21.10;99.90
17172;DHT22;8701;50.150;8.756;2023-07-31T17:26:19;21.10;99.90
17172;DHT22;8701;50.150;8.756;2023-07-31T17:30:21;21.00;99.90
17172;DHT22;8701;50.150;8.756;2023-07-31T17:34:23;20.90;99.90
17172;DHT22;8701;50.150;8.756;2023-07-31T17:38:26;20.70;99.90
17172;DHT22;8701;50.150;8.756;2023-07-31T17:42:29;20.60;99.90
17172;DHT22;8701;50.150;8.756;2023-07-31T17:46:32;20.50;99.90
17172;DHT22;8701;50.150;8.756;2023-07-31T17:50:34;20.40;99.90
17172;DHT22;8701;50.150;8.756;2023-07-31T17:54:36;20.30;99.90
17172;DHT22;8701;50.150;8.756;2023-07-31T17:58:40;20.10;99.90
17172;DHT22;8701;50.150;8.756;2023-07-31T18:02:42;20.10;99.90
17172;DHT22;8701;50.150;8.756;2023-07-31T18:06:44;19.90;99.90
17172;DHT22;8701;50.150;8.756;2023-07-31T18:10:46;19.80;99.90
17172;DHT22;8701;50.150;8.756;2023-07-31T18:14:50;19.80;99.90
17172;DHT22;8701;50.150;8.756;2023-07-31T18:18:53;19.80;99.90
17172;DHT22;8701;50.150;8.756;2023-07-31T18:22:55;19.70;99.90
17172;DHT22;8701;50.150;8.756;2023-07-31T18:26:57;19.70;99.90
17172;DHT22;8701;50.150;8.756;2023-07-31T18:31:01;19.60;99.90
17172;DHT22;8701;50.150;8.756;2023-07-31T18:35:04;19.60;99.90
17172;DHT22;8701;50.150;8.756;2023-07-31T18:39:06;19.60;99.90
17172;DHT22;8701;50.150;8.756;2023-07-31T18:43:09;19.60;99.90
17172;DHT22;8701;50.150;8.756;2023-07-31T18:47:12;19.60;99.90
17172;DHT22;8701;50.150;8.756;2023-07-31T18:51:15;19.60;99.90
17172;DHT22;8701;50.150;8.756;2023-07-31T18:55:18;19.60;99.90
17172;DHT22;8701;50.150;8.756;2023-07-31T18:59:21;19.60;99.90
17172;DHT22;8701;50.150;8.756;2023-07-31T19:03:24;19.60;99.90
17172;DHT22;8701;50.150;8.756;2023-07-31T19:07:26;19.70;99.90
17172;DHT22;8701;50.150;8.756;2023-07-31T19:11:29;19.60;99.90
17172;DHT22;8701;50.150;8.756;2023-07-31T19:15:31;19.70;99.90
17172;DHT22;8701;50.150;8.756;2023-07-31T19:19:35;19.60;99.90
17172;DHT22;8701;50.150;8.756;2023-07-31T19:23:37;19.60;99.90
17172;DHT22;8701;50.150;8.756;2023-07-31T19:27:39;19.60;99.90
17172;DHT22;8701;50.150;8.756;2023-07-31T19:31:42;19.60;99.90
17172;DHT22;8701;50.150;8.756;2023-07-31T19:35:52;19.60;99.90
17172;DHT22;8701;50.150;8.756;2023-07-31T19:39:55;19.60;99.90
17172;DHT22;8701;50.150;8.756;2023-07-31T19:43:58;19.60;99.90
17172;DHT22;8701;50.150;8.756;2023-07-31T19:48:00;19.50;99.90
17172;DHT22;8701;50.150;8.756;2023-07-31T19:52:04;19.50;99.90
17172;DHT22;8701;50.150;8.756;2023-07-31T19:56:06;19.40;99.90
17172;DHT22;8701;50.150;8.756;2023-07-31T20:00:09;19.40;99.90
17172;DHT22;8701;50.150;8.756;2023-07-31T20:04:11;19.40;99.90
17172;DHT22;8701;50.150;8.756;2023-07-31T20:08:15;19.30;99.90
17172;DHT22;8701;50.150;8.756;2023-07-31T20:12:17;19.30;99.90
17172;DHT22;8701;50.150;8.756;2023-07-31T20:16:20;19.30;99.90
17172;DHT22;8701;50.150;8.756;2023-07-31T20:20:22;19.20;99.90
17172;DHT22;8701;50.150;8.756;2023-07-31T20:24:26;19.20;99.90
17172;DHT22;8701;50.150;8.756;2023-07-31T20:28:28;19.20;99.90
17172;DHT22;8701;50.150;8.756;2023-07-31T20:32:31;19.20;99.90
17172;DHT22;8701;50.150;8.756;2023-07-31T20:36:33;19.20;99.90
17172;DHT22;8701;50.150;8.756;2023-07-31T20:40:37;19.10;99.90
17172;DHT22;8701;50.150;8.756;2023-07-31T20:44:40;19.10;99.90
17172;DHT22;8701;50.150;8.756;2023-07-31T20:48:42;19.00;99.90
17172;DHT22;8701;50.150;8.756;2023-07-31T20:52:44;18.90;99.90
17172;DHT22;8701;50.150;8.756;2023-07-31T20:56:48;18.90;99.90
17172;DHT22;8701;50.150;8.756;2023-07-31T21:00:51;18.90;99.90
17172;DHT22;8701;50.150;8.756;2023-07-31T21:04:54;18.80;99.90
17172;DHT22;8701;50.150;8.756;2023-07-31T21:08:56;18.70;99.90
17172;DHT22;8701;50.150;8.756;2023-07-31T21:13:00;18.60;99.90
17172;DHT22;8701;50.150;8.756;2023-07-31T21:17:03;18.50;99.90
17172;DHT22;8701;50.150;8.756;2023-07-31T21:21:05;18.40;99.90
17172;DHT22;8701;50.150;8.756;2023-07-31T21:25:08;18.30;99.90
17172;DHT22;8701;50.150;8.756;2023-07-31T21:29:11;18.30;99.90
17172;DHT22;8701;50.150;8.756;2023-07-31T21:33:14;18.20;99.90
17172;DHT22;8701;50.150;8.756;2023-07-31T21:37:16;18.10;99.90
17172;DHT22;8701;50.150;8.756;2023-07-31T21:41:19;18.10;99.90
17172;DHT22;8701;50.150;8.756;2023-07-31T21:45:23;18.10;99.90
17172;DHT22;8701;50.150;8.756;2023-07-31T21:49:25;18.10;99.90
17172;DHT22;8701;50.150;8.756;2023-07-31T21:53:27;18.10;99.90
17172;DHT22;8701;50.150;8.756;2023-07-31T21:57:30;18.10;99.90
17172;DHT22;8701;50.150;8.756;2023-07-31T22:01:33;18.10;99.90
17172;DHT22;8701;50.150;8.756;2023-07-31T22:05:35;18.10;99.90
17172;DHT22;8701;50.150;8.756;2023-07-31T22:09:38;18.10;99.90
17172;DHT22;8701;50.150;8.756;2023-07-31T22:13:40;18.10;99.90
17172;DHT22;8701;50.150;8.756;2023-07-31T22:17:43;18.00;99.90
17172;DHT22;8701;50.150;8.756;2023-07-31T22:21:46;18.00;99.90
17172;DHT22;8701;50.150;8.756;2023-07-31T22:25:48;18.00;99.90
17172;DHT22;8701;50.150;8.756;2023-07-31T22:29:50;17.90;99.90
17172;DHT22;8701;50.150;8.756;2023-07-31T22:33:54;17.90;99.90
17172;DHT22;8701;50.150;8.756;2023-07-31T22:37:57;17.90;99.90
17172;DHT22;8701;50.150;8.756;2023-07-31T22:41:59;17.90;99.90
17172;DHT22;8701;50.150;8.756;2023-07-31T22:46:01;17.90;99.90
17172;DHT22;8701;50.150;8.756;2023-07-31T22:50:06;17.90;99.90
17172;DHT22;8701;50.150;8.756;2023-07-31T22:54:09;17.90;99.90
17172;DHT22;8701;50.150;8.756;2023-07-31T22:58:11;17.90;99.90
17172;DHT22;8701;50.150;8.756;2023-07-31T23:02:13;17.90;99.90
17172;DHT22;8701;50.150;8.756;2023-07-31T23:06:17;17.90;99.90
17172;DHT22;8701;50.150;8.756;2023-07-31T23:10:19;17.90;99.90
17172;DHT22;8701;50.150;8.756;2023-07-31T23:14:21;17.90;99.90
17172;DHT22;8701;50.150;8.756;2023-07-31T23:18:23;17.90;99.90
17172;DHT22;8701;50.150;8.756;2023-07-31T23:22:27;17.90;99.90
17172;DHT22;8701;50.150;8.756;2023-07-31T23:26:29;17.90;99.90
17172;DHT22;8701;50.150;8.756;2023-07-31T23:30:31;17.80;99.90
17172;DHT22;8701;50.150;8.756;2023-07-31T23:34:33;17.90;99.90
17172;DHT22;8701;50.150;8.756;2023-07-31T23:38:37;17.80;99.90
17172;DHT22;8701;50.150;8.756;2023-07-31T23:42:39;17.80;99.90
17172;DHT22;8701;50.150;8.756;2023-07-31T23:46:42;17.80;99.90
17172;DHT22;8701;50.150;8.756;2023-07-31T23:50:47;17.80;99.90
17172;DHT22;8701;50.150;8.756;2023-07-31T23:54:50;17.70;99.90
17172;DHT22;8701;50.150;8.756;2023-07-31T23:58:53;17.70;99.90
